createdAt,value
2022-11-18T07:25:00.247Z,18.88
2022-11-18T07:29:18.165Z,24.55
2022-11-18T07:32:10.924Z,30.30
2022-11-18T07:35:29.209Z,21.80
2022-11-18T07:37:56.350Z,33.33
2022-11-18T07:40:48.723Z,26.90
2022-11-18T07:43:15.837Z,20.40
2022-11-18T07:45:43.132Z,23.60
2022-11-18T07:48:10.186Z,23.80
2022-11-18T07:50:37.464Z,26.45
2022-11-18T07:53:04.495Z,28.08
2022-11-18T07:55:32.412Z,27.13
2022-11-18T07:57:59.426Z,25.20
2022-11-18T08:00:26.748Z,27.83
2022-11-18T08:02:53.757Z,28.45
2022-11-18T08:05:21.040Z,29.10
2022-11-18T08:07:48.469Z,22.30
2022-11-18T08:10:16.320Z,25.85
2022-11-18T08:12:43.345Z,22.50
2022-11-18T08:15:11.005Z,24.20
2022-11-18T08:17:38.141Z,23.15
2022-11-18T08:20:06.126Z,30.70
2022-11-18T08:22:33.137Z,25.50
2022-11-18T08:25:00.375Z,24.35
2022-11-18T08:27:28.260Z,22.50
2022-11-18T08:29:55.444Z,26.02
2022-11-18T08:32:22.572Z,18.95
2022-11-18T08:34:51.329Z,18.65
2022-11-18T08:37:18.664Z,17.10
2022-11-18T08:39:45.952Z,15.15
2022-11-18T08:42:14.591Z,22.48
2022-11-18T08:44:41.891Z,18.38
2022-11-18T08:47:08.933Z,20.02
2022-11-18T08:49:36.148Z,21.27
2022-11-18T08:52:03.238Z,14.77
2022-11-18T08:54:31.533Z,19.85
2022-11-18T08:56:58.673Z,20.10
2022-11-18T08:59:26.128Z,30.13
2022-11-18T09:01:53.278Z,15.85
2022-11-18T09:04:20.728Z,26.38
2022-11-18T09:06:47.707Z,29.40
2022-11-18T09:09:15.762Z,27.83
2022-11-18T09:12:34.410Z,23.35
2022-11-18T09:15:17.848Z,26.98
2022-11-18T09:17:45.171Z,32.20
2022-11-18T09:20:19.611Z,29.67
2022-11-18T09:22:46.689Z,21.65
2022-11-18T09:25:14.349Z,21.00
2022-11-18T09:27:41.384Z,18.38
2022-11-18T09:30:09.950Z,22.80
2022-11-18T09:32:36.964Z,22.10
2022-11-18T09:35:05.014Z,25.77
2022-11-18T09:37:33.659Z,16.58
2022-11-18T09:40:01.011Z,20.40
2022-11-18T09:43:38.482Z,17.55
2022-11-18T09:47:22.891Z,18.88
2022-11-18T09:49:51.223Z,21.85
2022-11-18T10:03:28.945Z,17.45
2022-11-18T10:06:39.665Z,23.40
2022-11-18T10:09:15.369Z,26.38
2022-11-18T10:12:15.818Z,23.25
2022-11-18T10:14:42.795Z,23.75
2022-11-18T10:17:26.841Z,26.48
2022-11-18T10:20:28.173Z,25.27
2022-11-18T10:23:15.206Z,30.70
2022-11-18T10:25:42.520Z,23.35
2022-11-18T10:28:29.583Z,24.40
2022-11-18T10:31:12.110Z,25.13
2022-11-18T10:33:39.743Z,21.58
2022-11-18T10:36:24.730Z,17.85
2022-11-18T10:39:08.634Z,28.83
2022-11-18T10:41:48.385Z,33.05
2022-11-18T10:44:40.099Z,33.85
2022-11-18T10:47:16.885Z,26.92
2022-11-18T10:49:44.548Z,23.00
2022-11-18T10:52:14.150Z,26.30
2022-11-18T10:54:43.204Z,28.70
2022-11-18T10:57:18.775Z,24.55
2022-11-18T10:59:57.828Z,19.80
2022-11-18T11:02:54.380Z,25.38
2022-11-18T11:05:23.401Z,23.10
2022-11-18T11:08:36.527Z,21.23
2022-11-18T11:11:04.971Z,25.15
2022-11-18T11:13:40.520Z,22.92
2022-11-18T11:16:15.278Z,20.27
2022-11-18T11:18:43.997Z,21.92
2022-11-18T11:21:20.239Z,17.05
2022-11-18T11:23:47.516Z,17.75
2022-11-18T11:30:12.898Z,16.88
2022-11-18T11:33:26.013Z,20.05
2022-11-18T11:36:16.616Z,25.75
2022-11-18T11:39:11.812Z,21.55
2022-11-18T11:42:06.746Z,24.40
2022-11-18T11:44:49.519Z,23.73
2022-11-18T11:47:34.989Z,22.10
2022-11-18T11:51:00.128Z,17.95
2022-11-18T11:54:06.855Z,22.30
2022-11-18T11:56:51.161Z,19.10
2022-11-18T11:59:59.717Z,16.75
2022-11-18T12:03:19.862Z,24.33
2022-11-18T12:05:47.155Z,31.52
2022-11-18T12:08:32.868Z,20.95
2022-11-18T12:11:40.691Z,25.08
2022-11-18T12:14:40.896Z,29.75
2022-11-18T12:17:23.314Z,25.63
2022-11-18T12:19:50.646Z,24.55
2022-11-18T12:22:17.706Z,28.60
2022-11-18T12:24:45.164Z,30.70
2022-11-18T12:27:15.061Z,27.67
2022-11-18T12:29:52.030Z,34.85
2022-11-18T12:32:42.594Z,30.05
2022-11-18T12:35:13.033Z,28.63
2022-11-18T12:37:46.008Z,28.98
2022-11-18T12:40:52.314Z,28.27
2022-11-18T12:43:44.532Z,29.00
2022-11-18T12:46:35.573Z,33.88
2022-11-18T12:49:21.332Z,40.28
2022-11-18T12:52:03.533Z,46.88
2022-11-18T12:54:49.053Z,36.13
2022-11-18T12:57:29.429Z,29.55
2022-11-18T12:59:57.133Z,37.08
2022-11-18T13:02:29.865Z,30.10
2022-11-18T13:05:32.717Z,37.53
2022-11-18T13:08:14.850Z,30.20
2022-11-18T13:10:55.895Z,43.53
2022-11-18T13:13:31.339Z,30.77
2022-11-18T13:16:37.843Z,31.80
2022-11-18T13:19:05.750Z,27.85
2022-11-18T13:21:51.828Z,31.25
2022-11-18T13:24:22.232Z,33.30
2022-11-18T13:26:58.928Z,35.33
2022-11-18T13:29:42.809Z,29.63
2022-11-18T13:32:28.715Z,39.78
2022-11-18T13:35:02.977Z,28.08
2022-11-18T13:37:34.029Z,32.15
2022-11-18T13:40:01.433Z,29.55
2022-11-18T13:42:31.696Z,34.25
2022-11-18T13:45:01.886Z,33.33
2022-11-18T13:48:08.212Z,30.98
2022-11-18T13:50:52.476Z,34.35
2022-11-18T13:53:31.259Z,33.47
2022-11-18T13:56:03.019Z,27.20
2022-11-18T13:59:20.900Z,32.25
2022-11-18T14:01:55.912Z,38.03
2022-11-18T14:04:28.476Z,35.05
2022-11-18T14:07:24.284Z,27.48
2022-11-18T14:10:06.080Z,37.78
2022-11-18T14:12:36.172Z,40.88
2022-11-18T14:15:32.745Z,30.50
2022-11-18T14:18:02.370Z,43.33
2022-11-18T14:20:31.150Z,35.28
2022-11-18T14:23:01.655Z,34.33
2022-11-18T14:25:34.855Z,28.92
2022-11-18T14:28:27.985Z,35.42
2022-11-18T14:30:57.005Z,38.90
2022-11-18T14:33:25.692Z,32.03
2022-11-18T14:35:55.380Z,36.28
2022-11-18T14:39:11.238Z,31.00
2022-11-18T14:41:49.752Z,27.42
2022-11-18T14:44:19.209Z,28.58
2022-11-18T14:46:53.366Z,25.73
2022-11-18T14:49:23.936Z,24.42
2022-11-18T14:51:53.360Z,27.25
2022-11-18T14:54:28.084Z,34.83
2022-11-18T14:57:03.131Z,31.35
2022-11-18T14:59:30.578Z,35.78
2022-11-18T15:01:58.630Z,30.08
2022-11-18T15:04:26.214Z,27.13
2022-11-18T15:06:53.843Z,26.80
2022-11-18T15:09:21.058Z,36.03
2022-11-18T15:11:48.313Z,25.60
2022-11-18T15:14:15.519Z,25.23
2022-11-18T15:16:42.959Z,23.27
2022-11-18T15:19:15.446Z,28.98
2022-11-18T15:21:45.187Z,26.38
2022-11-18T15:24:12.216Z,26.42
2022-11-18T15:26:43.837Z,27.38
2022-11-18T15:29:22.137Z,35.33
2022-11-18T15:31:50.156Z,30.02
2022-11-18T15:34:20.054Z,25.90
2022-11-18T15:36:48.349Z,34.72
2022-11-18T15:39:15.872Z,33.45
2022-11-18T15:41:43.433Z,35.92
2022-11-18T15:44:11.041Z,30.52
2022-11-18T15:46:38.890Z,28.70
2022-11-18T15:49:09.259Z,34.20
2022-11-18T15:51:37.210Z,30.17
2022-11-18T15:54:04.331Z,28.77
2022-11-18T15:56:33.022Z,26.52
2022-11-18T15:59:14.771Z,37.88
2022-11-18T16:01:45.921Z,36.08
2022-11-18T16:04:17.533Z,39.58
2022-11-18T16:07:36.478Z,33.72
2022-11-18T16:10:22.575Z,45.47
2022-11-18T16:12:50.417Z,42.33
2022-11-18T16:15:37.072Z,39.55
2022-11-18T16:19:45.423Z,34.30
2022-11-18T16:22:13.067Z,33.75
2022-11-18T16:24:44.254Z,32.83
2022-11-18T16:27:22.274Z,29.92
2022-11-18T16:29:54.987Z,32.03
2022-11-18T16:32:22.080Z,35.83
2022-11-18T16:34:49.317Z,34.53
2022-11-18T16:37:17.115Z,32.47
2022-11-18T16:39:44.497Z,35.65
2022-11-18T16:42:12.667Z,36.35
2022-11-18T16:44:40.119Z,26.52
2022-11-18T16:47:14.356Z,35.75
2022-11-18T16:49:43.925Z,29.20
2022-11-18T16:52:11.494Z,26.45
2022-11-18T16:54:44.752Z,33.30
2022-11-18T16:57:13.593Z,36.00
2022-11-18T16:59:40.979Z,35.83
2022-11-18T17:02:13.950Z,25.42
2022-11-18T17:04:41.533Z,28.80
2022-11-18T17:07:08.518Z,34.70
2022-11-18T17:09:36.074Z,28.50
2022-11-18T17:12:03.696Z,28.73
2022-11-18T17:14:31.443Z,28.23
2022-11-18T17:16:58.803Z,32.38
2022-11-18T17:19:26.180Z,28.40
2022-11-18T17:21:53.554Z,42.88
2022-11-18T17:24:23.511Z,39.20
2022-11-18T17:26:52.021Z,34.30
2022-11-18T17:29:20.653Z,33.55
2022-11-18T17:31:48.050Z,36.35
2022-11-18T17:34:16.551Z,26.75
2022-11-18T17:36:43.868Z,31.33
2022-11-18T17:39:13.203Z,29.90
2022-11-18T17:41:59.082Z,28.83
2022-11-18T17:44:28.877Z,31.85
2022-11-18T17:46:56.549Z,31.00
2022-11-18T18:05:20.441Z,20.30
2022-11-18T18:17:59.119Z,19.42
2022-11-18T18:20:27.218Z,21.08
2022-11-18T18:22:54.756Z,22.73
2022-11-18T18:25:22.184Z,21.55
2022-11-18T18:27:49.379Z,24.42
2022-11-18T18:30:16.852Z,22.08
2022-11-18T18:32:49.487Z,21.85
2022-11-18T18:35:19.209Z,19.85
2022-11-18T18:37:46.738Z,19.70
2022-11-18T18:40:14.019Z,20.08
2022-11-18T18:42:41.200Z,18.80
2022-11-18T18:45:29.062Z,21.77
2022-11-18T18:47:56.429Z,19.00
2022-11-18T18:50:29.352Z,22.42
2022-11-18T18:52:57.183Z,32.28
2022-11-18T18:55:24.207Z,20.88
2022-11-18T18:57:51.548Z,15.55
2022-11-18T19:00:18.765Z,19.23
2022-11-18T19:10:30.046Z,27.92
2022-11-18T19:12:57.396Z,21.35
2022-11-18T19:15:24.374Z,21.42
2022-11-18T19:17:51.938Z,27.63
2022-11-18T19:20:34.149Z,25.13
2022-11-18T19:23:10.483Z,27.83
2022-11-18T19:30:19.877Z,26.13
2022-11-18T19:32:47.892Z,23.27
2022-11-18T19:35:15.582Z,27.75
2022-11-18T19:37:42.990Z,22.48
2022-11-18T19:40:10.963Z,23.55
2022-11-18T19:42:39.334Z,19.15
2022-11-18T19:45:11.713Z,19.33
2022-11-18T19:50:07.195Z,20.73
2022-11-18T19:52:34.512Z,21.73
2022-11-18T19:55:01.467Z,19.75
2022-11-18T19:57:28.988Z,21.02
2022-11-18T19:59:55.968Z,18.95
2022-11-18T20:02:23.251Z,21.15
2022-11-18T20:05:08.596Z,18.83
2022-11-18T20:07:35.866Z,21.27
2022-11-18T20:10:03.619Z,23.42
2022-11-18T20:12:30.825Z,19.92
2022-11-18T20:14:57.796Z,22.95
2022-11-18T20:17:25.082Z,21.17
2022-11-18T20:19:52.130Z,19.55
2022-11-18T20:22:19.363Z,21.08
2022-11-18T20:24:46.292Z,19.95
2022-11-18T20:27:15.996Z,17.85
2022-11-18T20:29:43.084Z,21.90
2022-11-18T20:32:10.320Z,21.65
2022-11-18T20:34:39.911Z,24.95
2022-11-18T20:37:07.258Z,25.63
2022-11-18T20:39:34.145Z,20.58
2022-11-18T20:42:21.292Z,19.52
2022-11-18T20:44:48.256Z,18.98
2022-11-18T20:47:15.387Z,17.40
2022-11-18T20:49:42.503Z,27.83
2022-11-18T20:52:09.693Z,24.45
2022-11-18T20:54:36.608Z,19.02
2022-11-18T20:57:04.037Z,21.20
2022-11-18T20:59:31.440Z,20.38
2022-11-18T21:01:58.665Z,20.65
2022-11-18T21:04:25.715Z,19.35
2022-11-18T21:06:58.691Z,19.13
2022-11-18T21:09:26.421Z,18.50
2022-11-18T21:11:53.624Z,19.17
2022-11-18T21:14:25.583Z,17.80
2022-11-18T21:17:01.812Z,15.98
2022-11-18T21:19:29.552Z,17.85
2022-11-18T21:21:56.932Z,15.43
2022-11-18T21:24:30.031Z,15.70
2022-11-18T21:26:59.002Z,15.57
2022-11-18T21:29:29.449Z,16.63
2022-11-18T21:31:58.225Z,13.35
2022-11-18T21:34:25.192Z,13.82
2022-11-18T21:36:55.157Z,14.55
2022-11-18T21:39:24.481Z,19.00
2022-11-18T21:41:56.363Z,13.27
2022-11-18T21:44:25.991Z,16.08
2022-11-18T21:46:53.562Z,17.33
2022-11-18T21:49:20.806Z,15.25
2022-11-18T21:51:48.188Z,15.88
2022-11-18T21:54:16.037Z,13.30
2022-11-18T21:56:43.405Z,16.30
2022-11-18T22:24:28.089Z,12.75
2022-11-18T22:26:55.791Z,12.77
2022-11-18T22:29:25.749Z,12.73
2022-11-18T22:31:53.301Z,13.20
2022-11-18T22:34:39.793Z,11.38
2022-11-18T22:37:12.329Z,11.95
2022-11-18T22:41:15.328Z,11.93
2022-11-18T22:44:09.649Z,11.43
2022-11-18T22:46:39.132Z,12.18
2022-11-18T23:04:31.487Z,13.48
2022-11-18T23:06:58.747Z,13.52
2022-11-18T23:09:25.729Z,12.68
2022-11-18T23:12:43.542Z,13.95
2022-11-18T23:37:26.648Z,11.35
